Time;durP1;ratioP1;P1;durP2;ratioP2;P2;SDS_P1;SDS_P2;PMS_P1;PMS_P2;Temp;Humidity;BMP_temperature;BMP_pressure;BME280_temperature;BME280_humidity;BME280_pressure;Samples;Min_cycle;Max_cycle;Signal;HPM_P1;HPM_P2
2022/04/30 00:05:09;;;;;;;9.88;6.85;;;5.00;99.90;;;;;;21127076;28;20088;-51
2022/04/30 00:15:11;;;;;;;8.32;5.38;;;5.00;99.90;;;;;;21142331;28;20109;-56
2022/04/30 00:25:15;;;;;;;8.55;4.68;;;4.90;99.90;;;;;;21142269;28;20035;-50
2022/04/30 00:35:18;;;;;;;5.70;3.85;;;4.90;99.90;;;;;;21140442;28;20039;-50
2022/04/30 00:45:20;;;;;;;6.68;4.13;;;4.80;99.90;;;;;;21136375;28;20485;-51
2022/04/30 00:55:29;;;;;;;6.57;3.72;;;4.70;99.90;;;;;;21134230;28;20101;-50
2022/04/30 01:05:34;;;;;;;4.57;3.22;;;4.70;99.90;;;;;;21197588;28;20053;-49
2022/04/30 01:15:37;;;;;;;4.60;2.88;;;4.60;99.90;;;;;;21217767;28;20031;-52
2022/04/30 01:25:44;;;;;;;5.93;3.25;;;4.70;99.90;;;;;;21218154;28;20084;-55
2022/04/30 01:46:08;;;;;;;4.82;2.95;;;5.00;99.90;;;;;;21081544;28;1402495;-48
2022/04/30 01:56:11;;;;;;;4.43;3.05;;;5.30;99.90;;;;;;21134227;28;20035;-50
2022/04/30 02:06:31;;;;;;;5.72;3.20;;;5.40;99.90;;;;;;21133550;28;20035;-48
2022/04/30 02:16:35;;;;;;;7.50;3.60;;;5.30;99.90;;;;;;21131517;28;20519;-51
2022/04/30 02:26:37;;;;;;;5.97;3.83;;;5.50;99.90;;;;;;21131570;28;20035;-49
2022/04/30 02:36:40;;;;;;;10.68;4.00;;;5.60;99.90;;;;;;21130845;28;20039;-51
2022/04/30 02:46:43;;;;;;;8.40;4.32;;;5.80;99.90;;;;;;21113397;28;20073;-52
2022/04/30 02:56:46;;;;;;;6.57;4.05;;;6.00;99.90;;;;;;21130146;28;20096;-55
2022/04/30 03:06:48;;;;;;;7.40;3.95;;;6.10;99.90;;;;;;21128637;28;20496;-56
2022/04/30 03:27:12;;;;;;;8.35;3.60;;;6.40;99.90;;;;;;21127847;28;20104;-56
2022/04/30 03:37:14;;;;;;;6.65;3.55;;;6.30;99.90;;;;;;21127694;28;20100;-57
2022/04/30 03:47:17;;;;;;;7.30;4.00;;;6.20;99.90;;;;;;21059477;28;20048;-57
2022/04/30 03:57:20;;;;;;;5.20;3.67;;;6.10;99.90;;;;;;21059632;28;20396;-50
2022/04/30 04:07:22;;;;;;;5.93;3.67;;;6.20;99.90;;;;;;21058692;28;20036;-52
2022/04/30 04:17:40;;;;;;;8.57;4.43;;;6.10;99.90;;;;;;21058361;28;20032;-52
2022/04/30 04:27:42;;;;;;;8.10;5.15;;;5.90;99.90;;;;;;21058164;28;20040;-53
2022/04/30 04:37:45;;;;;;;8.27;5.40;;;5.90;99.90;;;;;;21067101;28;20040;-51
2022/04/30 04:47:49;;;;;;;11.73;5.45;;;6.40;99.90;;;;;;21126880;28;20112;-52
2022/04/30 04:57:53;;;;;;;6.00;4.50;;;6.50;99.90;;;;;;21157641;28;20549;-52
2022/04/30 05:07:56;;;;;;;7.10;4.75;;;6.70;99.90;;;;;;21138407;28;20119;-58
2022/04/30 05:17:58;;;;;;;6.85;4.55;;;6.90;99.90;;;;;;21138716;28;20065;-53
2022/04/30 05:28:01;;;;;;;7.43;4.45;;;7.20;99.90;;;;;;21119780;28;20031;-52
2022/04/30 05:38:03;;;;;;;7.35;4.90;;;7.40;99.90;;;;;;21135977;28;20028;-58
2022/04/30 05:48:06;;;;;;;10.43;5.00;;;7.60;99.90;;;;;;21065780;28;20052;-53
2022/04/30 05:58:09;;;;;;;9.32;4.85;;;8.00;99.90;;;;;;21066777;28;20031;-52
2022/04/30 06:08:11;;;;;;;9.38;5.63;;;8.80;99.90;;;;;;21065752;28;20028;-53
2022/04/30 06:18:15;;;;;;;7.57;4.63;;;9.60;99.90;;;;;;21065284;28;20032;-59
2022/04/30 06:28:18;;;;;;;4.65;2.78;;;10.20;99.90;;;;;;21064670;28;20284;-53
2022/04/30 06:38:20;;;;;;;7.00;2.75;;;10.50;99.90;;;;;;21064697;28;20438;-53
2022/04/30 06:48:23;;;;;;;6.00;3.15;;;10.80;99.90;;;;;;21206635;27;20039;-54
2022/04/30 06:58:27;;;;;;;4.38;2.70;;;11.60;99.90;;;;;;21214212;27;20031;-59
2022/04/30 07:08:32;;;;;;;3.80;2.80;;;11.20;99.90;;;;;;21213705;27;20048;-59
2022/04/30 07:18:34;;;;;;;4.00;2.97;;;12.40;99.90;;;;;;21212630;27;20038;-55
2022/04/30 07:28:37;;;;;;;4.20;3.33;;;14.40;98.50;;;;;;21212397;27;20425;-57
2022/04/30 07:38:39;;;;;;;2.85;2.30;;;15.70;95.50;;;;;;21180786;27;20620;-55
2022/04/30 07:48:42;;;;;;;5.10;3.28;;;16.10;95.50;;;;;;21059276;28;20078;-59
2022/04/30 07:58:45;;;;;;;3.42;2.70;;;15.00;93.10;;;;;;21059067;28;20093;-55
2022/04/30 08:08:47;;;;;;;3.88;3.00;;;15.40;94.10;;;;;;21062293;28;20097;-58
2022/04/30 08:18:49;;;;;;;5.20;3.30;;;15.60;93.00;;;;;;21074769;28;20066;-60
2022/04/30 08:28:52;;;;;;;5.30;3.15;;;15.60;94.20;;;;;;21075549;28;20031;-55
2022/04/30 08:38:54;;;;;;;4.05;2.85;;;14.70;92.40;;;;;;21073339;28;20040;-60
2022/04/30 08:48:57;;;;;;;4.68;3.03;;;14.20;93.80;;;;;;21221065;27;20099;-51
2022/04/30 08:59:06;;;;;;;7.40;2.75;;;14.30;94.60;;;;;;21222929;27;20080;-60
2022/04/30 09:09:08;;;;;;;6.07;3.55;;;14.90;94.60;;;;;;21137745;28;20104;-51
2022/04/30 09:19:11;;;;;;;5.28;3.45;;;14.50;94.40;;;;;;21137465;28;20085;-53
2022/04/30 09:29:21;;;;;;;5.65;4.28;;;14.30;95.70;;;;;;21120346;28;20043;-57
2022/04/30 09:39:24;;;;;;;9.43;4.53;;;15.70;95.90;;;;;;21135947;28;20036;-57
2022/04/30 09:59:55;;;;;;;5.80;4.25;;;16.80;92.90;;;;;;21134382;28;20047;-62
2022/04/30 10:10:21;;;;;;;5.97;4.63;;;17.20;92.20;;;;;;21133624;28;20404;-62
2022/04/30 10:20:32;;;;;;;7.68;5.03;;;16.60;92.30;;;;;;21132580;28;20028;-55
2022/04/30 10:30:38;;;;;;;6.43;4.93;;;16.80;93.10;;;;;;21132019;28;20028;-62
2022/04/30 10:40:42;;;;;;;7.10;5.32;;;17.00;92.20;;;;;;21130998;28;20051;-62
2022/04/30 10:50:45;;;;;;;6.05;4.90;;;16.60;91.80;;;;;;21130359;28;20039;-54
2022/04/30 11:00:48;;;;;;;6.90;4.60;;;16.10;93.00;;;;;;21129103;28;20423;-61
2022/04/30 11:10:55;;;;;;;5.78;4.35;;;16.50;92.40;;;;;;21146106;28;20027;-62
2022/04/30 11:21:02;;;;;;;6.47;5.28;;;16.90;91.50;;;;;;21127311;28;20040;-61
2022/04/30 11:31:05;;;;;;;10.38;5.40;;;17.20;91.60;;;;;;21127274;28;20043;-61
2022/04/30 11:41:10;;;;;;;6.07;4.90;;;16.70;91.80;;;;;;21127498;28;20516;-62
2022/04/30 11:51:13;;;;;;;6.43;4.60;;;16.90;92.60;;;;;;21144573;28;20028;-62
2022/04/30 12:01:24;;;;;;;6.18;4.78;;;17.60;92.30;;;;;;21143558;28;20436;-54
2022/04/30 12:11:27;;;;;;;6.60;5.50;;;17.40;91.40;;;;;;21143316;28;20040;-62
2022/04/30 12:32:07;;;;;;;9.48;5.97;;;16.90;90.30;;;;;;21142476;28;20549;-61
2022/04/30 12:42:11;;;;;;;7.07;5.25;;;16.40;93.50;;;;;;21123818;28;20043;-62
2022/04/30 12:52:14;;;;;;;8.77;5.45;;;16.80;91.00;;;;;;21140250;28;20039;-61
2022/04/30 13:02:17;;;;;;;6.95;5.20;;;17.00;92.40;;;;;;21139514;28;20345;-60
2022/04/30 13:22:42;;;;;;;9.18;5.05;;;16.10;91.50;;;;;;21222910;27;20043;-60
2022/04/30 13:32:49;;;;;;;7.53;5.50;;;15.50;91.50;;;;;;21221562;27;20035;-52
2022/04/30 13:42:52;;;;;;;9.60;5.40;;;15.20;92.20;;;;;;21151825;28;20100;-60
2022/04/30 13:52:55;;;;;;;7.63;5.18;;;15.10;93.00;;;;;;21135446;28;20032;-60
2022/04/30 14:02:58;;;;;;;6.38;5.60;;;14.90;93.70;;;;;;21135590;28;20549;-60
2022/04/30 14:23:24;;;;;;;7.75;5.88;;;14.40;93.50;;;;;;21174022;27;20438;-49
2022/04/30 14:33:28;;;;;;;6.18;4.60;;;14.40;93.70;;;;;;21217393;27;20080;-60
2022/04/30 14:43:34;;;;;;;5.47;4.03;;;14.60;90.20;;;;;;21141440;28;20055;-60
2022/04/30 14:53:37;;;;;;;6.32;3.97;;;15.00;92.70;;;;;;21130271;28;20039;-61
2022/04/30 15:03:42;;;;;;;6.50;4.38;;;15.10;87.50;;;;;;21129460;28;20089;-60
2022/04/30 15:13:46;;;;;;;5.80;4.32;;;14.50;92.20;;;;;;21128971;28;20044;-53
2022/04/30 15:23:48;;;;;;;7.93;4.15;;;14.10;92.20;;;;;;21128399;28;20092;-59
2022/04/30 15:33:51;;;;;;;3.67;2.90;;;14.00;92.70;;;;;;21126717;28;20043;-60
2022/04/30 15:43:57;;;;;;;5.63;3.88;;;13.80;92.90;;;;;;21126848;28;20036;-60
2022/04/30 15:54:01;;;;;;;5.30;3.92;;;14.00;93.40;;;;;;21110062;28;20073;-59
2022/04/30 16:04:04;;;;;;;4.95;3.53;;;13.90;93.80;;;;;;21109457;28;20027;-60
2022/04/30 16:14:08;;;;;;;4.45;2.75;;;13.80;94.20;;;;;;21109767;28;20107;-60
2022/04/30 16:24:11;;;;;;;3.55;2.92;;;13.20;93.80;;;;;;21126181;28;20089;-60
2022/04/30 16:34:15;;;;;;;5.18;2.30;;;12.40;95.20;;;;;;21135819;28;20608;-60
2022/04/30 16:44:20;;;;;;;4.28;3.35;;;12.00;94.20;;;;;;21140732;28;20183;-60
2022/04/30 17:04:45;;;;;;;7.40;4.65;;;12.10;95.60;;;;;;20978144;28;20036;-60
2022/04/30 17:14:48;;;;;;;6.47;3.67;;;12.00;96.00;;;;;;20961050;28;20130;-59
2022/04/30 17:24:50;;;;;;;5.72;4.10;;;11.80;96.20;;;;;;20964592;28;20285;-59
2022/04/30 17:45:17;;;;;;;6.35;4.38;;;11.10;96.60;;;;;;21054959;28;20112;-48
2022/04/30 17:55:21;;;;;;;8.60;4.97;;;10.80;99.10;;;;;;21135157;28;20047;-59
2022/04/30 18:05:23;;;;;;;9.38;6.18;;;10.40;99.00;;;;;;21134257;28;21078;-60
2022/04/30 18:15:27;;;;;;;8.77;5.95;;;10.10;99.50;;;;;;21110416;28;20097;-53
2022/04/30 18:25:34;;;;;;;10.07;6.18;;;9.70;99.90;;;;;;21048525;28;20121;-49
2022/04/30 18:35:38;;;;;;;8.73;5.75;;;9.40;99.90;;;;;;21047568;28;20493;-59
2022/04/30 18:45:40;;;;;;;10.25;6.20;;;9.30;99.90;;;;;;21100115;28;20035;-58
2022/04/30 19:06:05;;;;;;;9.68;5.97;;;8.80;99.90;;;;;;21214982;27;20545;-50
2022/04/30 19:16:09;;;;;;;11.10;6.93;;;8.70;99.90;;;;;;21213834;27;20035;-51
2022/04/30 19:26:12;;;;;;;12.35;7.13;;;8.50;99.90;;;;;;21212020;27;20452;-50
2022/04/30 19:36:16;;;;;;;10.30;5.97;;;8.30;99.90;;;;;;21199836;27;20096;-50
2022/04/30 19:46:19;;;;;;;9.43;5.82;;;8.20;99.90;;;;;;21126928;28;20047;-49
2022/04/30 19:56:22;;;;;;;9.40;6.30;;;8.30;99.90;;;;;;21128168;28;20494;-50
2022/04/30 20:06:26;;;;;;;8.70;5.43;;;8.50;99.90;;;;;;21214347;27;20031;-48
2022/04/30 20:16:49;;;;;;;8.63;5.10;;;8.30;99.90;;;;;;21227245;27;20403;-49
2022/04/30 20:26:52;;;;;;;7.35;5.28;;;8.00;99.90;;;;;;21226847;27;20584;-52
2022/04/30 20:36:56;;;;;;;7.90;5.63;;;7.90;99.90;;;;;;21154870;28;20039;-49
2022/04/30 20:46:58;;;;;;;8.55;5.68;;;7.80;99.90;;;;;;21139661;27;20047;-58
2022/04/30 20:57:02;;;;;;;7.55;5.70;;;7.80;99.90;;;;;;21139706;28;20032;-51
2022/04/30 21:07:05;;;;;;;7.55;5.55;;;7.60;99.90;;;;;;21139833;28;20043;-50
2022/04/30 21:17:08;;;;;;;10.93;7.22;;;7.40;99.90;;;;;;21137404;28;20043;-49
2022/04/30 21:27:13;;;;;;;11.35;5.95;;;7.20;99.90;;;;;;21136937;28;20039;-51
2022/04/30 21:37:16;;;;;;;7.85;6.65;;;6.80;99.90;;;;;;21137051;28;20040;-50
2022/04/30 21:47:18;;;;;;;9.45;6.43;;;6.60;99.90;;;;;;21135055;28;20044;-50
2022/04/30 22:07:42;;;;;;;5.03;2.60;;;6.60;99.90;;;;;;21134216;28;20384;-51
2022/04/30 22:17:45;;;;;;;2.83;1.40;;;6.70;99.90;;;;;;21211702;27;20517;-52
2022/04/30 22:27:48;;;;;;;2.63;1.02;;;6.70;99.90;;;;;;21216886;27;20035;-57
2022/04/30 22:37:50;;;;;;;0.82;0.60;;;6.70;99.90;;;;;;21191983;27;20172;-51
2022/04/30 22:47:53;;;;;;;0.98;0.43;;;6.60;99.90;;;;;;21063511;28;20040;-58
2022/04/30 22:57:56;;;;;;;1.60;0.50;;;6.60;99.90;;;;;;21063149;28;20070;-58
2022/04/30 23:07:59;;;;;;;0.82;0.30;;;6.40;99.90;;;;;;21062864;28;20069;-50
2022/04/30 23:18:02;;;;;;;1.85;0.45;;;6.20;99.90;;;;;;21061596;28;20112;-49
2022/04/30 23:28:05;;;;;;;0.50;0.30;;;6.10;99.90;;;;;;21061357;28;20058;-51
2022/04/30 23:38:08;;;;;;;2.90;0.30;;;6.10;99.90;;;;;;21060341;28;20425;-50
2022/04/30 23:48:10;;;;;;;0.43;0.20;;;6.00;99.90;;;;;;21060194;28;20420;-51
2022/04/30 23:58:12;;;;;;;0.17;0.10;;;6.00;99.90;;;;;;21059786;28;20062;-52
